Time;durP1;ratioP1;P1;durP2;ratioP2;P2;SDS_P1;SDS_P2;PMS_P1;PMS_P2;Temp;Humidity;BMP_temperature;BMP_pressure;BME280_temperature;BME280_humidity;BME280_pressure;Samples;Min_cycle;Max_cycle;Signal;HPM_P1;HPM_P2
2021/10/28 04:29:51;;;;;;;2.15;2.05;;;;;;;3.22;100.00;99333.41;4919135;23;20085;-71
2021/10/28 04:32:17;;;;;;;4.75;1.98;;;;;;;3.25;100.00;99338.59;4879227;29;20123;-73
2021/10/28 04:34:44;;;;;;;2.97;2.78;;;;;;;3.39;100.00;99335.44;4879425;29;20028;-72
2021/10/28 04:37:10;;;;;;;3.85;2.63;;;;;;;3.58;100.00;99332.41;4879310;29;20111;-72
2021/10/28 04:39:36;;;;;;;6.45;3.08;;;;;;;3.59;100.00;99331.56;4879219;29;20068;-72
2021/10/28 04:42:01;;;;;;;4.40;3.22;;;;;;;3.62;100.00;99331.59;4886327;29;20039;-71
2021/10/28 04:44:27;;;;;;;4.75;3.50;;;;;;;3.63;100.00;99333.34;4889790;29;20028;-71
2021/10/28 04:46:52;;;;;;;2.85;2.53;;;;;;;3.49;100.00;99327.09;4897916;29;20039;-73
2021/10/28 04:49:17;;;;;;;2.72;2.53;;;;;;;3.27;100.00;99330.94;4897620;29;20039;-72
2021/10/28 04:51:43;;;;;;;3.17;2.90;;;;;;;3.25;100.00;99328.34;4897565;29;20046;-72
2021/10/28 04:54:08;;;;;;;7.32;3.58;;;;;;;3.24;100.00;99329.19;4896400;29;20496;-72
2021/10/28 04:56:34;;;;;;;1.52;1.42;;;;;;;3.18;100.00;99326.47;4897517;29;20039;-72
2021/10/28 04:59:00;;;;;;;3.03;2.83;;;;;;;3.19;100.00;99327.34;4897471;29;20038;-72
2021/10/28 05:01:26;;;;;;;3.03;2.83;;;;;;;3.16;100.00;99329.84;4897230;29;20476;-72
2021/10/28 05:03:51;;;;;;;3.13;2.92;;;;;;;3.12;100.00;99320.38;4897542;29;20021;-72
2021/10/28 05:06:16;;;;;;;2.10;2.00;;;;;;;3.15;100.00;99316.19;4897410;29;20086;-72
2021/10/28 05:08:42;;;;;;;3.65;3.35;;;;;;;3.21;100.00;99321.44;4897458;29;20024;-74
2021/10/28 05:11:07;;;;;;;2.30;2.20;;;;;;;3.23;100.00;99324.00;4894360;29;20028;-74
2021/10/28 05:13:32;;;;;;;3.85;3.55;;;;;;;3.47;100.00;99308.25;4889271;29;20052;-74
2021/10/28 05:15:59;;;;;;;2.20;2.10;;;;;;;3.33;100.00;99311.41;4897228;29;20112;-74
2021/10/28 05:18:25;;;;;;;3.90;2.67;;;;;;;3.35;100.00;99309.78;4897176;29;20033;-74
2021/10/28 05:20:52;;;;;;;1.85;1.75;;;;;;;3.42;100.00;99315.84;4897206;29;20078;-74
2021/10/28 05:23:18;;;;;;;2.63;1.98;;;;;;;3.29;100.00;99304.53;4896960;29;20071;-74
2021/10/28 05:25:46;;;;;;;4.60;1.77;;;;;;;3.19;100.00;99312.88;4897186;29;20115;-74
2021/10/28 05:28:12;;;;;;;2.00;1.85;;;;;;;3.14;100.00;99309.31;4897262;29;20033;-74
2021/10/28 05:30:37;;;;;;;1.48;1.48;;;;;;;3.11;100.00;99304.16;4896888;29;20478;-75
2021/10/28 05:33:03;;;;;;;2.05;1.95;;;;;;;3.11;100.00;99304.16;4896842;29;20108;-74
2021/10/28 05:35:28;;;;;;;3.22;2.90;;;;;;;3.00;100.00;99301.41;4897120;29;20024;-74
2021/10/28 05:37:54;;;;;;;1.85;1.75;;;;;;;3.09;100.00;99300.69;4896950;29;20470;-74
2021/10/28 05:40:21;;;;;;;3.08;2.78;;;;;;;3.07;100.00;99302.38;4896946;29;20029;-74
2021/10/28 05:42:48;;;;;;;2.17;1.95;;;;;;;3.12;100.00;99305.88;4888341;29;20037;-75
2021/10/28 05:45:15;;;;;;;2.67;2.38;;;;;;;3.21;100.00;99300.09;4895048;29;20096;-74
2021/10/28 05:47:41;;;;;;;3.65;2.72;;;;;;;3.16;100.00;99300.00;4896607;29;20032;-74
2021/10/28 05:50:09;;;;;;;2.28;2.10;;;;;;;3.17;100.00;99309.41;4896823;29;20032;-74
2021/10/28 05:52:34;;;;;;;3.72;3.20;;;;;;;3.17;100.00;99311.97;4896685;29;20156;-74
2021/10/28 05:55:03;;;;;;;2.53;1.92;;;;;;;3.22;100.00;99306.94;4896874;29;20472;-74
2021/10/28 05:57:29;;;;;;;2.70;2.15;;;;;;;3.29;100.00;99304.53;4896976;29;20495;-74
2021/10/28 05:59:54;;;;;;;2.10;2.00;;;;;;;3.40;100.00;99311.56;4896831;29;20117;-74
2021/10/28 06:02:19;;;;;;;3.70;1.98;;;;;;;3.48;100.00;99309.97;4896716;29;20088;-74
2021/10/28 06:04:44;;;;;;;5.53;2.42;;;;;;;3.41;100.00;99308.16;4897008;29;20057;-75
2021/10/28 06:07:10;;;;;;;3.42;2.83;;;;;;;3.38;100.00;99302.97;4896840;29;20509;-74
2021/10/28 06:09:35;;;;;;;3.25;2.75;;;;;;;3.54;100.00;99299.88;4896612;29;20032;-75
2021/10/28 06:12:00;;;;;;;2.83;2.60;;;;;;;3.41;100.00;99303.03;4893614;29;20076;-74
2021/10/28 06:14:27;;;;;;;2.30;2.15;;;;;;;3.26;100.00;99301.91;4888971;29;20049;-75
2021/10/28 06:16:57;;;;;;;4.20;3.83;;;;;;;3.40;100.00;99307.28;4895930;29;20447;-74
2021/10/28 06:19:22;;;;;;;2.75;2.38;;;;;;;3.36;100.00;99305.50;4896705;29;20033;-74
2021/10/28 06:21:48;;;;;;;2.28;1.98;;;;;;;3.30;100.00;99306.25;4895271;29;20371;-74
2021/10/28 06:24:14;;;;;;;5.32;3.90;;;;;;;3.42;100.00;99304.75;4896582;29;20028;-74
2021/10/28 06:26:39;;;;;;;3.60;2.75;;;;;;;3.64;100.00;99316.28;4896879;29;20112;-75
2021/10/28 06:29:04;;;;;;;2.58;2.28;;;;;;;3.49;100.00;99317.72;4896569;29;20368;-74
2021/10/28 06:31:30;;;;;;;2.42;2.25;;;;;;;3.61;100.00;99317.94;4896217;29;20061;-74
2021/10/28 06:34:09;;;;;;;2.50;1.95;;;;;;;3.84;100.00;99318.34;4896536;29;20024;-74
2021/10/28 06:36:36;;;;;;;2.45;2.25;;;;;;;4.07;100.00;99315.34;4896562;29;20032;-74
2021/10/28 06:39:03;;;;;;;5.22;3.83;;;;;;;4.57;100.00;99315.25;4896650;29;20028;-74
2021/10/28 06:41:30;;;;;;;4.63;4.03;;;;;;;4.65;100.00;99311.09;4893552;29;20025;-75
2021/10/28 06:43:56;;;;;;;9.65;5.88;;;;;;;4.67;99.48;99322.22;4888903;29;20028;-73
2021/10/28 06:46:21;;;;;;;3.90;3.47;;;;;;;4.52;99.02;99311.75;4896441;29;20112;-73
2021/10/28 06:48:46;;;;;;;4.32;3.53;;;;;;;4.48;99.82;99317.66;4896473;29;20169;-73
2021/10/28 06:51:12;;;;;;;2.88;2.40;;;;;;;4.39;98.89;99305.56;4896113;29;20040;-73
2021/10/28 06:54:01;;;;;;;2.90;2.70;;;;;;;4.34;98.99;99308.06;4896447;29;20203;-73
2021/10/28 07:02:18;;;;;;;3.97;2.33;;;;;;;4.38;98.39;99304.69;4899332;29;20038;-73
2021/10/28 07:04:45;;;;;;;3.05;2.85;;;;;;;4.46;97.62;99306.53;4899607;29;20108;-73
2021/10/28 07:07:11;;;;;;;3.38;2.15;;;;;;;4.79;97.51;99301.03;4899629;29;20039;-73
2021/10/28 07:09:39;;;;;;;3.22;2.92;;;;;;;5.10;95.78;99302.28;4899536;29;20024;-73
2021/10/28 07:14:30;;;;;;;3.25;2.55;;;;;;;5.41;94.64;99296.66;4891948;29;20028;-73
2021/10/28 07:17:16;;;;;;;8.63;3.38;;;;;;;5.73;93.80;99295.25;4899324;29;20059;-73
2021/10/28 07:19:54;;;;;;;4.38;2.88;;;;;;;5.75;92.96;99304.69;4899425;29;20031;-73
2021/10/28 07:22:32;;;;;;;2.65;2.45;;;;;;;5.55;94.01;99295.91;4899205;29;20426;-73
2021/10/28 07:25:55;;;;;;;2.47;2.17;;;;;;;5.92;93.37;99292.91;4899443;29;20115;-73
2021/10/28 07:55:08;;;;;;;3.85;3.13;;;;;;;12.94;63.81;99262.50;4898989;29;20043;-71
2021/10/28 08:14:18;;;;;;;4.97;3.45;;;;;;;15.68;51.55;99261.72;4890398;29;20508;-73
2021/10/28 08:19:43;;;;;;;3.75;2.92;;;;;;;16.08;50.64;99260.47;4898473;29;20033;-73
2021/10/28 08:22:33;;;;;;;4.78;2.80;;;;;;;16.53;49.81;99251.97;4898254;29;20024;-73
2021/10/28 08:30:11;;;;;;;4.18;2.35;;;;;;;16.56;50.38;99246.66;4898117;29;20451;-73
2021/10/28 08:32:38;;;;;;;4.90;2.97;;;;;;;16.34;51.44;99235.19;4897896;29;20036;-73
2021/10/28 08:35:05;;;;;;;3.85;2.85;;;;;;;18.20;48.14;99225.56;4898059;29;20028;-74
2021/10/28 08:37:55;;;;;;;4.10;3.17;;;;;;;21.19;41.29;99214.75;4898252;29;20466;-74
2021/10/28 08:40:17;;;;;;;3.53;2.50;;;;;;;21.97;39.27;99220.97;4897512;29;20077;-74
2021/10/28 08:42:43;;;;;;;5.30;3.22;;;;;;;22.92;37.61;99219.78;4888617;29;20032;-74
2021/10/28 08:45:15;;;;;;;3.25;2.60;;;;;;;23.28;35.95;99212.22;4894976;29;20040;-74
2021/10/28 08:47:49;;;;;;;4.63;2.80;;;;;;;22.90;36.54;99216.41;4897839;29;20059;-74
2021/10/28 08:55:37;;;;;;;4.90;2.60;;;;;;;22.11;37.87;99214.03;4897766;29;20028;-74
2021/10/28 09:24:18;;;;;;;2.42;2.08;;;;;;;24.66;33.04;99181.97;4897326;29;20405;-74
2021/10/28 09:27:07;;;;;;;3.40;2.42;;;;;;;25.57;32.14;99184.31;4897063;29;20037;-74
2021/10/28 09:32:36;;;;;;;1.80;1.63;;;;;;;21.94;37.17;99188.63;4896705;29;20041;-74
2021/10/28 09:51:17;;;;;;;2.88;1.95;;;;;;;24.05;33.67;99179.00;4896843;29;20033;-74
2021/10/28 09:54:00;;;;;;;;;;;;;;;26.27;31.46;99165.81;4897563;29;20072;-74
2021/10/28 09:59:33;;;;;;;3.15;1.98;;;;;;;25.54;32.19;99179.25;4896731;29;20039;-74
2021/10/28 10:02:14;;;;;;;4.10;2.35;;;;;;;26.46;30.17;99183.03;4896512;29;20060;-74
2021/10/28 10:04:45;;;;;;;4.18;3.03;;;;;;;25.74;31.01;99181.28;4896870;29;20084;-75
2021/10/28 10:07:13;;;;;;;4.20;3.28;;;;;;;24.09;33.67;99187.59;4896692;29;20052;-75
2021/10/28 10:09:39;;;;;;;5.18;2.95;;;;;;;25.50;32.63;99175.13;4896616;29;20025;-75
2021/10/28 10:12:06;;;;;;;4.32;2.65;;;;;;;24.61;33.09;99174.34;4893711;29;20048;-74
2021/10/28 10:14:35;;;;;;;6.20;3.05;;;;;;;26.57;31.10;99170.59;4889189;29;20033;-75
2021/10/28 10:17:02;;;;;;;2.92;2.30;;;;;;;24.10;32.71;99184.00;4896753;29;20028;-73
2021/10/28 10:19:45;;;;;;;3.55;2.08;;;;;;;25.54;31.52;99169.50;4896706;29;20103;-73
2021/10/28 10:22:41;;;;;;;4.45;2.47;;;;;;;26.08;30.66;99168.19;4896516;29;20501;-73
2021/10/28 10:25:34;;;;;;;3.95;2.83;;;;;;;25.80;31.71;99175.56;4896254;29;20036;-73
2021/10/28 10:28:43;;;;;;;3.22;2.22;;;;;;;25.73;30.96;99165.47;4896513;29;20151;-73
2021/10/28 11:15:49;;;;;;;3.33;2.22;;;;;;;26.77;28.62;99123.84;4862676;29;20376;-75
2021/10/28 11:32:38;;;;;;;3.25;2.20;;;;;;;26.06;30.00;99098.38;4898956;29;20051;-75
2021/10/28 12:44:20;;;;;;;3.58;2.00;;;;;;;17.69;47.53;99016.22;4890076;29;20060;-74
2021/10/28 12:50:04;;;;;;;2.40;1.98;;;;;;;17.40;49.78;99004.34;4897712;29;20119;-74
2021/10/28 12:55:36;;;;;;;8.57;2.88;;;;;;;17.51;49.57;99006.53;4897681;29;20023;-74
2021/10/28 13:04:53;;;;;;;3.72;2.15;;;;;;;17.13;50.92;98991.50;4897607;29;20071;-74
2021/10/28 13:48:24;;;;;;;3.47;1.80;;;;;;;16.34;51.24;98952.75;4897014;29;20574;-73
2021/10/28 14:00:59;;;;;;;1.45;1.30;;;;;;;16.65;51.41;98941.97;4896584;29;20025;-74
2021/10/28 15:29:03;;;;;;;4.25;1.90;;;;;;;13.93;63.42;98910.47;4899212;29;20088;-77
2021/10/28 15:32:06;;;;;;;4.45;2.20;;;;;;;13.79;64.65;98917.81;4898845;29;20056;-72
2021/10/28 15:39:37;;;;;;;1.70;1.35;;;;;;;12.80;70.21;98905.69;4899398;29;20084;-72
2021/10/28 15:42:36;;;;;;;3.53;1.75;;;;;;;12.79;69.82;98901.38;4895877;29;20084;-72
2021/10/28 16:01:38;;;;;;;2.20;1.90;;;;;;;11.66;77.51;98899.59;4898661;29;20043;-72
2021/10/28 16:23:08;;;;;;;1.77;1.55;;;;;;;10.67;83.10;98898.81;4877606;29;20068;-74
2021/10/28 16:25:33;;;;;;;1.52;1.42;;;;;;;10.34;84.74;98910.53;4877587;29;20111;-74
2021/10/28 16:27:58;;;;;;;1.35;1.25;;;;;;;10.26;85.11;98895.16;4876498;29;20041;-70
2021/10/28 16:30:24;;;;;;;1.00;1.00;;;;;;;10.18;85.56;98904.72;4916436;23;20097;-75
2021/10/28 16:32:49;;;;;;;2.58;1.92;;;;;;;10.09;85.66;98910.00;4878222;29;20410;-73
2021/10/28 16:35:14;;;;;;;2.10;2.00;;;;;;;10.04;85.62;98903.16;4879470;29;20168;-74
2021/10/28 16:37:41;;;;;;;2.38;2.17;;;;;;;9.99;85.94;98899.78;4878077;29;20498;-73
2021/10/28 16:40:07;;;;;;;4.22;2.22;;;;;;;9.98;85.90;98903.25;4878427;29;20063;-73
2021/10/28 16:42:33;;;;;;;7.90;2.80;;;;;;;9.90;86.33;98912.00;4881889;29;20045;-73
2021/10/28 16:44:59;;;;;;;2.15;1.95;;;;;;;9.83;86.42;98903.47;4882415;29;20526;-73
2021/10/28 16:47:25;;;;;;;1.88;1.75;;;;;;;9.76;86.42;98912.16;4878675;29;20040;-73
2021/10/28 16:49:51;;;;;;;3.53;2.25;;;;;;;9.69;86.92;98907.97;4878134;29;20048;-74
2021/10/28 16:52:17;;;;;;;3.80;2.10;;;;;;;9.61;87.01;98908.03;4877674;29;20117;-75
2021/10/28 16:54:43;;;;;;;2.05;1.90;;;;;;;9.48;87.55;98902.19;4877994;29;20056;-75
2021/10/28 16:57:08;;;;;;;1.58;1.48;;;;;;;9.45;87.97;98909.97;4878714;29;20037;-75
2021/10/28 16:59:33;;;;;;;1.98;1.75;;;;;;;9.45;88.27;98915.13;4878723;29;20037;-75
2021/10/28 17:01:59;;;;;;;3.60;2.90;;;;;;;9.23;88.59;98916.22;4878445;29;20028;-74
2021/10/28 17:04:24;;;;;;;3.03;2.38;;;;;;;9.02;89.53;98913.00;4877342;29;20108;-74
2021/10/28 17:06:52;;;;;;;1.73;1.63;;;;;;;9.04;89.16;98914.69;4878809;29;20033;-74
2021/10/28 17:09:18;;;;;;;1.65;1.55;;;;;;;9.02;89.27;98912.13;4878575;29;20025;-74
2021/10/28 17:11:43;;;;;;;2.10;1.17;;;;;;;8.96;89.25;98918.22;4882918;29;20047;-74
2021/10/28 17:14:08;;;;;;;3.10;1.38;;;;;;;8.83;89.91;98915.75;4889316;29;20028;-74
2021/10/28 17:16:36;;;;;;;2.25;2.05;;;;;;;8.79;89.77;98920.09;4882130;29;20662;-74
2021/10/28 17:19:03;;;;;;;2.03;1.83;;;;;;;8.80;90.32;98911.50;4878506;29;20029;-74
2021/10/28 17:21:28;;;;;;;2.83;2.13;;;;;;;8.75;91.02;98908.94;4878095;29;20501;-74
2021/10/28 17:24:06;;;;;;;2.63;1.90;;;;;;;8.78;91.30;98918.38;4878422;29;20033;-74
2021/10/28 17:26:32;;;;;;;1.58;1.50;;;;;;;8.85;91.89;98914.88;4878272;29;20112;-74
2021/10/28 17:29:01;;;;;;;3.78;1.90;;;;;;;8.81;92.04;98913.19;4878397;29;20025;-74
2021/10/28 17:31:29;;;;;;;2.28;2.08;;;;;;;8.84;92.04;98912.28;4877942;29;20053;-74
2021/10/28 17:33:56;;;;;;;2.42;1.85;;;;;;;8.77;92.17;98916.66;4878403;29;20056;-74
2021/10/28 17:36:22;;;;;;;7.45;4.60;;;;;;;8.69;92.26;98918.44;4878182;29;20040;-74
2021/10/28 17:38:47;;;;;;;8.48;3.45;;;;;;;8.64;92.78;98915.06;4878244;29;20021;-74
2021/10/28 17:41:12;;;;;;;11.15;4.35;;;;;;;8.66;92.91;98910.75;4877808;29;20032;-74
2021/10/28 17:43:42;;;;;;;5.18;3.65;;;;;;;8.65;92.71;98906.44;4877127;29;20036;-74
2021/10/28 17:46:10;;;;;;;6.75;4.00;;;;;;;8.49;93.22;98911.72;4878102;29;20107;-74
2021/10/28 17:48:35;;;;;;;2.80;2.03;;;;;;;8.36;94.25;98915.25;4878189;29;20120;-74
2021/10/28 17:51:01;;;;;;;13.95;6.53;;;;;;;8.30;94.24;98917.84;4878074;29;20048;-74
2021/10/28 17:53:27;;;;;;;4.63;3.05;;;;;;;8.24;94.48;98905.00;4878221;29;20029;-74
2021/10/28 17:55:52;;;;;;;5.75;5.18;;;;;;;8.22;93.82;98912.75;4878223;29;20049;-74
2021/10/28 17:58:18;;;;;;;2.78;2.38;;;;;;;8.21;94.60;98911.00;4878171;29;20036;-74
2021/10/28 18:00:43;;;;;;;3.00;2.45;;;;;;;8.43;94.77;98906.59;4876930;29;20029;-74
2021/10/28 18:03:09;;;;;;;2.40;2.20;;;;;;;8.53;94.60;98909.13;4877945;29;20044;-73
2021/10/28 18:05:36;;;;;;;3.42;2.65;;;;;;;8.60;94.49;98909.03;4878029;29;20025;-74
2021/10/28 18:08:02;;;;;;;4.13;2.67;;;;;;;8.64;93.70;98909.88;4878060;29;20399;-74
2021/10/28 18:10:28;;;;;;;3.03;2.35;;;;;;;8.50;93.43;98918.59;4878018;29;20120;-74
2021/10/28 18:12:53;;;;;;;1.58;1.48;;;;;;;8.15;94.30;98917.94;4878264;29;20552;-74
2021/10/28 18:15:19;;;;;;;3.05;2.28;;;;;;;8.05;95.51;98913.72;4887162;29;20478;-74
2021/10/28 18:17:45;;;;;;;3.92;3.13;;;;;;;7.88;96.56;98922.41;4896633;29;20072;-74
2021/10/28 18:20:11;;;;;;;2.17;1.95;;;;;;;7.83;96.77;98916.41;4896816;29;20043;-73
2021/10/28 18:22:39;;;;;;;2.97;2.53;;;;;;;7.70;97.46;98917.31;4896348;29;20032;-74
2021/10/28 18:25:07;;;;;;;2.08;1.90;;;;;;;7.66;97.62;98913.91;4896620;29;20037;-74
2021/10/28 18:27:33;;;;;;;3.85;2.50;;;;;;;7.56;98.32;98913.94;4896732;29;20385;-74
2021/10/28 18:30:00;;;;;;;2.03;1.90;;;;;;;7.59;98.96;98913.91;4896452;29;20029;-74
2021/10/28 18:32:26;;;;;;;2.00;1.67;;;;;;;7.62;99.32;98893.28;4896357;29;20040;-74
2021/10/28 18:34:52;;;;;;;1.42;1.35;;;;;;;7.73;99.21;98905.25;4896487;29;20025;-74
2021/10/28 18:37:20;;;;;;;2.00;1.90;;;;;;;7.75;98.97;98904.41;4896636;29;20065;-74
2021/10/28 18:39:45;;;;;;;1.83;1.48;;;;;;;7.78;99.17;98904.38;4896391;29;20030;-73
2021/10/28 18:42:10;;;;;;;2.40;2.17;;;;;;;7.86;99.41;98908.66;4885685;29;20024;-74
2021/10/28 18:44:36;;;;;;;2.17;1.58;;;;;;;7.91;99.63;98906.91;4881022;29;20031;-74
2021/10/28 18:47:01;;;;;;;3.55;2.65;;;;;;;7.87;99.20;98905.19;4896598;29;20037;-74
2021/10/28 18:49:27;;;;;;;2.70;2.25;;;;;;;7.84;99.41;98905.22;4896423;29;20107;-74
2021/10/28 18:51:52;;;;;;;2.17;1.98;;;;;;;7.77;99.49;98898.38;4882507;29;20117;-74
2021/10/28 18:54:18;;;;;;;2.75;2.45;;;;;;;7.72;99.56;98895.81;4887539;29;20028;-74
2021/10/28 18:56:47;;;;;;;2.60;2.00;;;;;;;7.71;99.98;98895.81;4899911;29;20033;-74
2021/10/28 18:59:15;;;;;;;2.92;2.75;;;;;;;7.61;100.00;98894.16;4899890;29;20035;-74
2021/10/28 19:01:41;;;;;;;2.95;1.98;;;;;;;7.60;100.00;98902.75;4898191;29;20025;-74
2021/10/28 19:04:07;;;;;;;2.97;2.78;;;;;;;7.58;100.00;98891.56;4899765;29;20442;-74
2021/10/28 19:06:32;;;;;;;1.88;1.77;;;;;;;7.56;100.00;98888.16;4899583;29;20024;-74
2021/10/28 19:08:57;;;;;;;2.22;1.70;;;;;;;7.57;100.00;98884.72;4899655;29;20080;-74
2021/10/28 19:11:26;;;;;;;2.95;1.98;;;;;;;7.50;100.00;98894.22;4896038;29;20029;-74
2021/10/28 19:13:53;;;;;;;5.45;3.08;;;;;;;7.42;100.00;98890.78;4891839;29;20032;-74
2021/10/28 19:16:19;;;;;;;2.65;1.98;;;;;;;7.28;100.00;98888.25;4899445;29;20494;-73
2021/10/28 19:18:45;;;;;;;3.67;2.85;;;;;;;7.23;100.00;98884.84;4899534;29;20115;-74
2021/10/28 19:21:12;;;;;;;1.70;1.60;;;;;;;7.25;100.00;98888.25;4890465;29;20056;-74
2021/10/28 19:23:39;;;;;;;1.95;1.70;;;;;;;7.24;100.00;98889.13;4880436;29;20028;-74
2021/10/28 19:26:04;;;;;;;4.80;2.22;;;;;;;7.22;100.00;98883.13;4880457;29;20570;-74
2021/10/28 19:28:30;;;;;;;2.08;1.63;;;;;;;7.21;100.00;98876.25;4880598;29;20025;-74
2021/10/28 19:31:00;;;;;;;4.25;2.33;;;;;;;7.20;100.00;98874.53;4880373;29;20410;-74
2021/10/28 19:39:34;;;;;;;2.17;1.95;;;;;;;6.98;100.00;98872.88;4859523;29;20033;-73
2021/10/28 19:47:27;;;;;;;2.13;1.90;;;;;;;6.93;100.00;98878.03;4880002;29;20120;-76
2021/10/28 19:49:52;;;;;;;3.63;2.10;;;;;;;6.87;100.00;98883.22;4880256;29;20111;-75
2021/10/28 19:52:18;;;;;;;2.42;2.22;;;;;;;6.82;100.00;98878.06;4878563;29;20090;-77
2021/10/28 19:54:48;;;;;;;2.20;2.03;;;;;;;6.83;100.00;98877.19;4880039;29;20081;-74
2021/10/28 19:57:26;;;;;;;2.10;1.90;;;;;;;6.71;100.00;98874.63;4880301;29;20032;-76
2021/10/28 20:00:10;;;;;;;1.77;1.67;;;;;;;6.65;100.00;98872.06;4879936;29;20171;-76
2021/10/28 20:03:03;;;;;;;4.10;2.95;;;;;;;6.68;100.00;98870.34;4879738;29;20156;-76
2021/10/28 20:21:17;;;;;;;2.47;2.13;;;;;;;6.57;100.00;98860.91;4898518;29;20035;-76
2021/10/28 20:23:43;;;;;;;2.53;2.33;;;;;;;6.56;100.00;98854.03;4898364;29;20024;-76
2021/10/28 20:26:08;;;;;;;2.22;2.03;;;;;;;6.55;100.00;98860.06;4898285;29;20039;-76
2021/10/28 20:28:40;;;;;;;3.08;2.65;;;;;;;6.53;100.00;98860.06;4898261;29;20020;-76
2021/10/28 20:31:07;;;;;;;2.22;2.03;;;;;;;6.53;100.00;98846.34;4897850;29;20504;-76
2021/10/28 20:33:37;;;;;;;2.35;2.25;;;;;;;6.51;100.00;98851.47;4898129;29;20538;-76
2021/10/28 20:38:47;;;;;;;2.78;2.58;;;;;;;6.44;100.00;98860.06;4898117;29;20059;-76
2021/10/28 20:41:12;;;;;;;2.05;1.95;;;;;;;6.44;100.00;98855.78;4894493;29;20504;-76
2021/10/28 20:43:38;;;;;;;5.10;3.03;;;;;;;6.40;100.00;98859.22;4890138;29;20127;-76
2021/10/28 20:46:04;;;;;;;1.98;1.88;;;;;;;6.36;100.00;98860.06;4897839;29;20033;-76
2021/10/28 20:48:30;;;;;;;5.40;2.22;;;;;;;6.30;100.00;98866.94;4896689;29;20439;-76
2021/10/28 20:50:55;;;;;;;1.80;1.70;;;;;;;6.22;100.00;98863.47;4897614;29;20034;-76
2021/10/28 20:53:21;;;;;;;3.30;2.88;;;;;;;6.15;100.00;98860.06;4897711;29;20510;-75
2021/10/28 20:55:46;;;;;;;1.95;1.83;;;;;;;6.05;100.00;98858.34;4897738;29;20032;-75
2021/10/28 20:58:12;;;;;;;2.90;2.58;;;;;;;5.94;100.00;98860.88;4897894;29;20024;-76
2021/10/28 21:00:37;;;;;;;2.47;2.35;;;;;;;5.95;100.00;98854.00;4897746;29;20036;-76
2021/10/28 21:03:02;;;;;;;4.03;2.08;;;;;;;5.91;100.00;98843.72;4897524;29;20371;-76
2021/10/28 21:05:29;;;;;;;2.35;2.20;;;;;;;5.90;100.00;98856.56;4897509;29;20029;-74
2021/10/28 21:07:56;;;;;;;2.95;2.67;;;;;;;5.87;100.00;98857.41;4897577;29;20059;-76
2021/10/28 21:10:25;;;;;;;2.35;1.95;;;;;;;5.89;100.00;98855.69;4897601;29;20036;-76
2021/10/28 21:12:52;;;;;;;1.67;1.58;;;;;;;5.90;100.00;98859.13;4888344;29;20032;-74
2021/10/28 21:15:18;;;;;;;2.28;2.17;;;;;;;5.97;100.00;98848.03;4895436;29;20028;-74
2021/10/28 21:17:44;;;;;;;1.67;1.58;;;;;;;5.96;100.00;98850.59;4896695;29;20371;-74
2021/10/28 21:20:10;;;;;;;2.75;1.90;;;;;;;5.92;100.00;98845.44;4897334;29;20119;-74
2021/10/28 21:22:36;;;;;;;1.98;1.58;;;;;;;5.99;100.00;98842.88;4897080;29;20028;-74
2021/10/28 21:25:03;;;;;;;3.25;2.67;;;;;;;5.97;100.00;98849.75;4897260;29;20505;-74
2021/10/28 21:27:28;;;;;;;1.80;1.73;;;;;;;5.91;100.00;98836.03;4897047;29;20085;-74
2021/10/28 21:29:54;;;;;;;2.50;2.30;;;;;;;5.91;100.00;98840.28;4897251;29;20460;-74
2021/10/28 21:32:19;;;;;;;3.05;2.70;;;;;;;5.93;100.00;98831.72;4896812;29;20036;-74
2021/10/28 21:34:45;;;;;;;2.40;2.05;;;;;;;5.91;100.00;98828.31;4897052;29;20099;-74
2021/10/28 21:37:13;;;;;;;3.70;2.67;;;;;;;5.82;100.00;98823.13;4896975;29;20173;-74
2021/10/28 21:39:39;;;;;;;2.47;2.28;;;;;;;5.75;100.00;98829.09;4897037;29;20158;-74
2021/10/28 21:42:06;;;;;;;2.10;2.00;;;;;;;5.72;100.00;98821.38;4893404;29;20039;-74
2021/10/28 21:44:32;;;;;;;3.45;3.15;;;;;;;5.70;100.00;98828.22;4889037;29;20036;-74
2021/10/28 21:46:58;;;;;;;1.83;1.52;;;;;;;5.71;100.00;98824.81;4896940;29;20483;-74
2021/10/28 21:49:24;;;;;;;1.15;1.15;;;;;;;5.72;100.00;98821.38;4896745;29;20112;-74
2021/10/28 21:51:54;;;;;;;2.08;1.95;;;;;;;5.64;100.00;98813.63;4896670;29;20092;-74
2021/10/28 21:57:24;;;;;;;1.58;1.50;;;;;;;5.65;100.00;98820.50;4896876;29;20177;-74
2021/10/28 22:00:15;;;;;;;2.17;2.08;;;;;;;5.67;100.00;98812.81;4896767;29;20168;-74
2021/10/28 22:03:13;;;;;;;3.22;2.92;;;;;;;5.60;100.00;98803.34;4896882;29;20410;-76
2021/10/28 22:24:49;;;;;;;4.20;2.60;;;;;;;5.52;100.00;98800.78;4896588;29;20463;-74
2021/10/28 22:27:15;;;;;;;3.85;2.70;;;;;;;5.53;100.00;98799.06;4896753;29;20029;-74
2021/10/28 22:29:41;;;;;;;4.15;2.70;;;;;;;5.47;100.00;98799.06;4898210;29;20112;-74
2021/10/28 22:32:07;;;;;;;2.55;2.38;;;;;;;5.44;100.00;98804.19;4900256;29;20036;-74
2021/10/28 22:34:33;;;;;;;2.38;2.28;;;;;;;5.38;100.00;98795.59;4900183;29;20502;-74
2021/10/28 22:42:27;;;;;;;2.13;2.03;;;;;;;5.30;100.00;98787.00;4894376;29;20071;-74
2021/10/28 22:44:52;;;;;;;3.40;2.75;;;;;;;5.25;100.00;98777.56;4894604;29;20558;-75
2021/10/28 22:47:18;;;;;;;3.40;3.15;;;;;;;5.26;100.00;98777.56;4899985;29;20029;-74
2021/10/28 22:49:45;;;;;;;2.97;2.42;;;;;;;5.31;100.00;98778.44;4899962;29;20052;-73
2021/10/28 22:54:43;;;;;;;2.60;2.10;;;;;;;5.33;100.00;98776.75;4900064;29;20039;-73
2021/10/28 22:57:13;;;;;;;3.00;2.40;;;;;;;5.30;100.00;98766.44;4899794;29;20085;-74
2021/10/28 22:59:39;;;;;;;7.07;3.92;;;;;;;5.27;100.00;98771.59;4899836;29;20539;-73
2021/10/28 23:02:21;;;;;;;2.63;2.45;;;;;;;5.31;100.00;98763.03;4899422;29;20103;-74
2021/10/28 23:05:04;;;;;;;3.30;3.00;;;;;;;5.26;100.00;98762.16;4899631;29;20032;-74
2021/10/28 23:08:06;;;;;;;4.43;2.70;;;;;;;5.15;100.00;98753.56;4899677;29;20111;-74
2021/10/28 23:16:01;;;;;;;3.63;2.50;;;;;;;5.03;100.00;98756.06;4899671;29;20390;-73
2021/10/28 23:21:06;;;;;;;4.60;2.58;;;;;;;4.96;100.00;98759.47;4899302;29;20100;-73
2021/10/28 23:23:31;;;;;;;2.63;1.95;;;;;;;4.94;100.00;98756.06;4899136;29;20107;-73
2021/10/28 23:25:57;;;;;;;3.58;2.92;;;;;;;4.88;100.00;98751.75;4899291;29;20471;-73
2021/10/28 23:28:22;;;;;;;2.50;2.40;;;;;;;4.81;100.00;98760.28;4899194;29;20040;-74
2021/10/28 23:30:48;;;;;;;4.50;3.50;;;;;;;4.74;100.00;98749.13;4899049;29;20180;-74
2021/10/28 23:33:13;;;;;;;5.82;3.15;;;;;;;4.69;100.00;98744.81;4899058;29;20028;-73
2021/10/28 23:35:38;;;;;;;2.65;2.25;;;;;;;4.70;100.00;98742.28;4899110;29;20442;-73
2021/10/28 23:38:04;;;;;;;2.72;2.53;;;;;;;4.72;100.00;98740.56;4898992;29;20028;-74
2021/10/28 23:40:30;;;;;;;3.67;3.33;;;;;;;4.76;100.00;98733.72;4898347;29;20021;-73
2021/10/28 23:42:56;;;;;;;3.22;3.03;;;;;;;4.75;100.00;98729.47;4889277;29;20045;-73
2021/10/28 23:45:22;;;;;;;7.45;4.32;;;;;;;4.83;100.00;98732.91;4897346;29;20025;-74
2021/10/28 23:47:48;;;;;;;2.85;2.63;;;;;;;4.88;100.00;98726.97;4899017;29;20613;-74
2021/10/28 23:50:13;;;;;;;2.65;2.42;;;;;;;4.88;100.00;98732.09;4898903;29;20055;-73
2021/10/28 23:52:39;;;;;;;5.90;3.55;;;;;;;4.84;100.00;98730.34;4897285;29;20041;-73
2021/10/28 23:55:05;;;;;;;4.30;3.20;;;;;;;4.90;100.00;98720.09;4898730;29;20035;-73
2021/10/28 23:57:31;;;;;;;4.70;2.03;;;;;;;4.85;100.00;98719.22;4897556;29;20032;-73
2021/10/28 23:59:57;;;;;;;4.65;3.60;;;;;;;4.79;100.00;98719.22;4898711;29;20028;-73
